EAG5530 SBBR-SBRJ
Flight info
| Callsign | EAG5530 |
|---|---|
| Flight time | 1h 22m |
| Altitude | 37000 |
| Route | GEPMO UZ6 TOKIM |
| Aircraft | A20N/M-SDE2E3FGHIRWXY/LB1 |
Departure
| Time | 2026-04-28 15:03 |
|---|---|
| Airport | Presidente Juscelino Kubitschek International Airport (SBBR) |
Arrival
| Time | 2026-04-28 16:26 |
|---|---|
| Airport | Santos Dumont Airport (SBRJ) |
| Time | Latitude | Longitude | Altitude | Speed | Heading |
|---|---|---|---|---|---|
| 2026-04-28 14:55 | -15.86713 | -47.91843 | 3463 ft | 1 kts | 176° |
| 2026-04-28 14:56 | -15.86711 | -47.91843 | 3463 ft | 3 kts | 176° |
| 2026-04-28 14:56 | -15.86684 | -47.91845 | 3462 ft | 4 kts | 179° |
| 2026-04-28 14:56 | -15.86657 | -47.91845 | 3463 ft | 4 kts | 184° |
| 2026-04-28 14:56 | -15.86631 | -47.91841 | 3464 ft | 4 kts | 201° |
| 2026-04-28 14:57 | -15.86613 | -47.91828 | 3461 ft | 2 kts | 264° |
| 2026-04-28 14:57 | -15.86613 | -47.91826 | 3461 ft | 1 kts | 266° |
| 2026-04-28 14:59 | -15.86615 | -47.91849 | 3462 ft | 7 kts | 266° |
| 2026-04-28 14:59 | -15.86619 | -47.91897 | 3464 ft | 6 kts | 265° |
| 2026-04-28 14:59 | -15.86622 | -47.91939 | 3464 ft | 6 kts | 266° |
| 2026-04-28 14:59 | -15.86625 | -47.92007 | 3463 ft | 11 kts | 266° |
| 2026-04-28 15:00 | -15.86634 | -47.92106 | 3463 ft | 16 kts | 269° |
| 2026-04-28 15:00 | -15.86609 | -47.92219 | 3461 ft | 16 kts | 297° |
| 2026-04-28 15:00 | -15.86553 | -47.92316 | 3461 ft | 15 kts | 302° |
| 2026-04-28 15:00 | -15.86529 | -47.92422 | 3461 ft | 15 kts | 268° |
| 2026-04-28 15:01 | -15.86537 | -47.92525 | 3463 ft | 14 kts | 268° |
| 2026-04-28 15:01 | -15.86540 | -47.92598 | 3462 ft | 0 kts | 267° |
| 2026-04-28 15:01 | -15.86544 | -47.92671 | 3461 ft | 21 kts | 266° |
| 2026-04-28 15:01 | -15.86497 | -47.92765 | 3468 ft | 15 kts | 343° |
| 2026-04-28 15:02 | -15.86392 | -47.92742 | 3463 ft | 17 kts | 46° |
| 2026-04-28 15:02 | -15.86350 | -47.92636 | 3464 ft | 8 kts | 85° |
| 2026-04-28 15:02 | -15.86350 | -47.92633 | 3464 ft | 0 kts | 86° |
| 2026-04-28 15:02 | -15.86348 | -47.92603 | 3465 ft | 23 kts | 86° |
| 2026-04-28 15:03 | -15.86321 | -47.92205 | 3467 ft | 85 kts | 86° |
| 2026-04-28 15:03 | -15.86270 | -47.91415 | 3467 ft | 132 kts | 86° |
| 2026-04-28 15:03 | -15.86198 | -47.90413 | 3884 ft | 134 kts | 85° |
| 2026-04-28 15:03 | -15.86128 | -47.89472 | 4484 ft | 134 kts | 82° |
| 2026-04-28 15:04 | -15.86054 | -47.88473 | 4912 ft | 140 kts | 84° |
| 2026-04-28 15:04 | -15.85975 | -47.87449 | 5349 ft | 150 kts | 84° |
| 2026-04-28 15:04 | -15.85894 | -47.86305 | 5692 ft | 171 kts | 85° |
| 2026-04-28 15:04 | -15.85800 | -47.84997 | 6119 ft | 192 kts | 85° |
| 2026-04-28 15:05 | -15.85705 | -47.83547 | 6613 ft | 206 kts | 85° |
| 2026-04-28 15:05 | -15.85610 | -47.82048 | 7198 ft | 212 kts | 86° |
| 2026-04-28 15:05 | -15.85833 | -47.80459 | 7375 ft | 241 kts | 110° |
| 2026-04-28 15:05 | -15.86852 | -47.78981 | 7715 ft | 267 kts | 139° |
| 2026-04-28 15:06 | -15.88561 | -47.78101 | 8336 ft | 284 kts | 163° |
| 2026-04-28 15:06 | -15.90563 | -47.78055 | 8866 ft | 293 kts | 189° |
| 2026-04-28 15:06 | -15.92495 | -47.78774 | 9454 ft | 298 kts | 203° |
| 2026-04-28 15:06 | -15.94365 | -47.79711 | 10349 ft | 298 kts | 203° |
| 2026-04-28 15:07 | -15.96317 | -47.80617 | 10724 ft | 319 kts | 201° |
| 2026-04-28 15:07 | -15.98460 | -47.81475 | 11025 ft | 342 kts | 199° |
| 2026-04-28 15:07 | -16.00748 | -47.82297 | 11518 ft | 351 kts | 198° |
| 2026-04-28 15:07 | -16.03080 | -47.83096 | 12233 ft | 355 kts | 197° |
| 2026-04-28 15:08 | -16.05454 | -47.83867 | 12928 ft | 359 kts | 194° |
| 2026-04-28 15:08 | -16.07932 | -47.84346 | 13576 ft | 363 kts | 186° |
| 2026-04-28 15:08 | -16.10473 | -47.84457 | 14198 ft | 368 kts | 180° |
| 2026-04-28 15:08 | -16.13039 | -47.84396 | 14741 ft | 372 kts | 172° |
| 2026-04-28 15:09 | -16.15537 | -47.83662 | 15214 ft | 377 kts | 153° |
| 2026-04-28 15:09 | -16.17694 | -47.82120 | 15724 ft | 379 kts | 135° |
| 2026-04-28 15:09 | -16.19577 | -47.80197 | 16296 ft | 382 kts | 133° |
| 2026-04-28 15:09 | -16.20837 | -47.78898 | 16627 ft | 386 kts | 134° |
| 2026-04-28 15:10 | -16.23404 | -47.76249 | 17315 ft | 392 kts | 133° |
| 2026-04-28 15:10 | -16.25343 | -47.74251 | 17935 ft | 393 kts | 134° |
| 2026-04-28 15:10 | -16.27300 | -47.72241 | 18382 ft | 398 kts | 133° |
| 2026-04-28 15:10 | -16.29281 | -47.70206 | 18883 ft | 400 kts | 134° |
| 2026-04-28 15:11 | -16.31274 | -47.68162 | 19307 ft | 405 kts | 134° |
| 2026-04-28 15:11 | -16.33290 | -47.66093 | 19726 ft | 409 kts | 134° |
| 2026-04-28 15:11 | -16.35320 | -47.64008 | 20215 ft | 411 kts | 134° |
| 2026-04-28 15:11 | -16.37366 | -47.61907 | 20649 ft | 415 kts | 134° |
| 2026-04-28 15:12 | -16.39427 | -47.59789 | 21100 ft | 418 kts | 134° |
| 2026-04-28 15:12 | -16.41478 | -47.57682 | 21515 ft | 422 kts | 134° |
| 2026-04-28 15:12 | -16.43577 | -47.55523 | 21953 ft | 425 kts | 134° |
| 2026-04-28 15:12 | -16.45691 | -47.53349 | 22384 ft | 429 kts | 134° |
| 2026-04-28 15:13 | -16.47819 | -47.51160 | 22810 ft | 432 kts | 134° |
| 2026-04-28 15:13 | -16.49971 | -47.48945 | 23234 ft | 436 kts | 134° |
| 2026-04-28 15:13 | -16.52142 | -47.46710 | 23653 ft | 440 kts | 134° |
| 2026-04-28 15:13 | -16.54324 | -47.44462 | 24025 ft | 442 kts | 134° |
| 2026-04-28 15:14 | -16.56519 | -47.42201 | 24414 ft | 444 kts | 134° |
| 2026-04-28 15:14 | -16.58722 | -47.39931 | 24786 ft | 447 kts | 134° |
| 2026-04-28 15:14 | -16.60939 | -47.37645 | 25161 ft | 449 kts | 134° |
| 2026-04-28 15:14 | -16.63158 | -47.35356 | 25534 ft | 451 kts | 134° |
| 2026-04-28 15:15 | -16.65396 | -47.33046 | 25883 ft | 454 kts | 134° |
| 2026-04-28 15:15 | -16.66887 | -47.31507 | 26124 ft | 456 kts | 134° |
| 2026-04-28 15:15 | -16.69909 | -47.28387 | 26592 ft | 459 kts | 134° |
| 2026-04-28 15:15 | -16.72152 | -47.26069 | 26927 ft | 461 kts | 134° |
| 2026-04-28 15:16 | -16.74437 | -47.23708 | 27262 ft | 463 kts | 134° |
| 2026-04-28 15:16 | -16.76732 | -47.21336 | 27594 ft | 466 kts | 134° |
| 2026-04-28 15:16 | -16.79038 | -47.18951 | 27922 ft | 468 kts | 134° |
| 2026-04-28 15:16 | -16.81355 | -47.16555 | 28232 ft | 470 kts | 135° |
| 2026-04-28 15:17 | -16.83784 | -47.14251 | 28558 ft | 472 kts | 141° |
| 2026-04-28 15:17 | -16.86467 | -47.12258 | 28834 ft | 475 kts | 148° |
| 2026-04-28 15:17 | -16.89372 | -47.10603 | 29088 ft | 478 kts | 155° |
| 2026-04-28 15:17 | -16.92396 | -47.09143 | 29413 ft | 480 kts | 155° |
| 2026-04-28 15:18 | -16.95426 | -47.07664 | 29710 ft | 482 kts | 155° |
| 2026-04-28 15:18 | -16.98471 | -47.06171 | 30011 ft | 484 kts | 155° |
| 2026-04-28 15:18 | -17.01518 | -47.04676 | 30286 ft | 486 kts | 155° |
| 2026-04-28 15:18 | -17.04587 | -47.03171 | 30591 ft | 487 kts | 155° |
| 2026-04-28 15:19 | -17.07656 | -47.01666 | 30885 ft | 488 kts | 155° |
| 2026-04-28 15:19 | -17.10695 | -47.00177 | 31157 ft | 490 kts | 155° |
| 2026-04-28 15:19 | -17.13784 | -46.98662 | 31533 ft | 489 kts | 155° |
| 2026-04-28 15:19 | -17.16850 | -46.97159 | 31953 ft | 487 kts | 155° |
| 2026-04-28 15:20 | -17.19908 | -46.95664 | 32388 ft | 484 kts | 156° |
| 2026-04-28 15:20 | -17.22954 | -46.94182 | 32791 ft | 482 kts | 156° |
| 2026-04-28 15:20 | -17.25994 | -46.92698 | 33177 ft | 480 kts | 155° |
| 2026-04-28 15:20 | -17.29015 | -46.91219 | 33550 ft | 479 kts | 155° |
| 2026-04-28 15:21 | -17.32024 | -46.89740 | 33924 ft | 477 kts | 155° |
| 2026-04-28 15:21 | -17.35024 | -46.88264 | 34231 ft | 476 kts | 155° |
| 2026-04-28 15:21 | -17.38016 | -46.86791 | 34518 ft | 475 kts | 155° |
| 2026-04-28 15:21 | -17.40994 | -46.85324 | 34796 ft | 473 kts | 156° |
| 2026-04-28 15:22 | -17.43978 | -46.83854 | 35065 ft | 472 kts | 156° |
| 2026-04-28 15:22 | -17.46943 | -46.82392 | 35320 ft | 472 kts | 156° |
| 2026-04-28 15:22 | -17.49914 | -46.80928 | 35591 ft | 470 kts | 156° |
| 2026-04-28 15:22 | -17.52872 | -46.79469 | 35865 ft | 469 kts | 156° |
| 2026-04-28 15:23 | -17.55817 | -46.78016 | 36093 ft | 469 kts | 156° |
| 2026-04-28 15:23 | -17.58733 | -46.76578 | 36332 ft | 468 kts | 156° |
| 2026-04-28 15:23 | -17.61676 | -46.75125 | 36578 ft | 467 kts | 156° |
| 2026-04-28 15:23 | -17.64611 | -46.73676 | 36806 ft | 466 kts | 156° |
| 2026-04-28 15:24 | -17.67543 | -46.72228 | 36997 ft | 466 kts | 156° |
| 2026-04-28 15:24 | -17.73390 | -46.69340 | 37026 ft | 463 kts | 156° |
| 2026-04-28 15:25 | -17.78248 | -46.66938 | 37026 ft | 466 kts | 156° |
| 2026-04-28 15:25 | -17.84111 | -46.64038 | 37029 ft | 465 kts | 156° |
| 2026-04-28 15:26 | -17.89972 | -46.61138 | 37030 ft | 465 kts | 156° |
| 2026-04-28 15:26 | -17.95830 | -46.58236 | 37031 ft | 466 kts | 156° |
| 2026-04-28 15:27 | -18.01694 | -46.55330 | 37030 ft | 466 kts | 156° |
| 2026-04-28 15:27 | -18.07563 | -46.52419 | 37038 ft | 466 kts | 156° |
| 2026-04-28 15:28 | -18.13444 | -46.49501 | 37045 ft | 467 kts | 156° |
| 2026-04-28 15:28 | -18.19285 | -46.46600 | 37047 ft | 467 kts | 156° |
| 2026-04-28 15:29 | -18.25166 | -46.43676 | 37039 ft | 468 kts | 156° |
| 2026-04-28 15:29 | -18.31059 | -46.40744 | 37041 ft | 468 kts | 156° |
| 2026-04-28 15:30 | -18.36948 | -46.37813 | 37045 ft | 468 kts | 156° |
| 2026-04-28 15:30 | -18.42847 | -46.34875 | 37039 ft | 469 kts | 157° |
| 2026-04-28 15:31 | -18.48744 | -46.31935 | 37048 ft | 469 kts | 157° |
| 2026-04-28 15:31 | -18.54641 | -46.28993 | 37051 ft | 469 kts | 157° |
| 2026-04-28 15:32 | -18.60516 | -46.26059 | 37058 ft | 470 kts | 157° |
| 2026-04-28 15:32 | -18.66426 | -46.23105 | 37051 ft | 470 kts | 157° |
| 2026-04-28 15:33 | -18.72351 | -46.20141 | 37056 ft | 471 kts | 157° |
| 2026-04-28 15:33 | -18.78271 | -46.17178 | 37059 ft | 471 kts | 157° |
| 2026-04-28 15:34 | -18.84186 | -46.14216 | 37068 ft | 471 kts | 157° |
| 2026-04-28 15:34 | -18.90108 | -46.11247 | 37069 ft | 471 kts | 157° |
| 2026-04-28 15:35 | -18.96034 | -46.08274 | 37069 ft | 471 kts | 157° |
| 2026-04-28 15:35 | -19.04903 | -46.03820 | 37060 ft | 470 kts | 157° |
| 2026-04-28 15:36 | -19.10809 | -46.00851 | 37057 ft | 471 kts | 157° |
| 2026-04-28 15:36 | -19.16702 | -45.97833 | 37061 ft | 471 kts | 153° |
| 2026-04-28 15:37 | -19.22398 | -45.94381 | 37061 ft | 471 kts | 152° |
| 2026-04-28 15:37 | -19.28101 | -45.90932 | 37059 ft | 472 kts | 153° |
| 2026-04-28 15:38 | -19.33764 | -45.87503 | 37053 ft | 472 kts | 153° |
| 2026-04-28 15:38 | -19.39467 | -45.84045 | 37047 ft | 472 kts | 153° |
| 2026-04-28 15:39 | -19.45180 | -45.80577 | 37052 ft | 473 kts | 153° |
| 2026-04-28 15:39 | -19.50893 | -45.77106 | 37045 ft | 473 kts | 153° |
| 2026-04-28 15:40 | -19.56565 | -45.73552 | 37047 ft | 474 kts | 151° |
| 2026-04-28 15:40 | -19.62207 | -45.69927 | 37050 ft | 474 kts | 151° |
| 2026-04-28 15:41 | -19.67857 | -45.66314 | 37057 ft | 475 kts | 151° |
| 2026-04-28 15:41 | -19.73494 | -45.62716 | 37043 ft | 475 kts | 152° |
| 2026-04-28 15:42 | -19.79168 | -45.59093 | 37043 ft | 476 kts | 152° |
| 2026-04-28 15:42 | -19.84847 | -45.55464 | 37055 ft | 476 kts | 151° |
| 2026-04-28 15:43 | -19.90526 | -45.51831 | 37049 ft | 477 kts | 152° |
| 2026-04-28 15:43 | -19.96202 | -45.48198 | 37060 ft | 477 kts | 152° |
| 2026-04-28 15:44 | -20.01887 | -45.44555 | 37063 ft | 477 kts | 152° |
| 2026-04-28 15:44 | -20.07574 | -45.40909 | 37062 ft | 477 kts | 152° |
| 2026-04-28 15:45 | -20.13264 | -45.37249 | 37066 ft | 477 kts | 151° |
| 2026-04-28 15:45 | -20.18886 | -45.33563 | 37068 ft | 478 kts | 151° |
| 2026-04-28 15:46 | -20.24546 | -45.29843 | 37072 ft | 478 kts | 151° |
| 2026-04-28 15:46 | -20.30215 | -45.26122 | 37064 ft | 478 kts | 151° |
| 2026-04-28 15:47 | -20.35872 | -45.22403 | 37063 ft | 478 kts | 151° |
| 2026-04-28 15:47 | -20.41537 | -45.18685 | 37057 ft | 478 kts | 151° |
| 2026-04-28 15:48 | -20.47192 | -45.14967 | 37059 ft | 478 kts | 151° |
| 2026-04-28 15:48 | -20.52816 | -45.11265 | 37062 ft | 478 kts | 151° |
| 2026-04-28 15:49 | -20.58509 | -45.07514 | 37071 ft | 478 kts | 151° |
| 2026-04-28 15:49 | -20.64167 | -45.03784 | 37068 ft | 478 kts | 151° |
| 2026-04-28 15:50 | -20.69792 | -45.00069 | 37060 ft | 478 kts | 152° |
| 2026-04-28 15:50 | -20.75455 | -44.96330 | 37061 ft | 479 kts | 152° |
| 2026-04-28 15:51 | -20.81128 | -44.92618 | 37064 ft | 479 kts | 152° |
| 2026-04-28 15:51 | -20.86809 | -44.88902 | 37068 ft | 479 kts | 152° |
| 2026-04-28 15:52 | -20.92490 | -44.85179 | 37065 ft | 479 kts | 152° |
| 2026-04-28 15:52 | -20.98179 | -44.81446 | 37067 ft | 479 kts | 152° |
| 2026-04-28 15:53 | -21.03303 | -44.78081 | 37068 ft | 479 kts | 152° |
| 2026-04-28 15:53 | -21.09019 | -44.74368 | 37075 ft | 479 kts | 153° |
| 2026-04-28 15:54 | -21.14757 | -44.70729 | 37077 ft | 479 kts | 153° |
| 2026-04-28 15:54 | -21.20452 | -44.67102 | 37084 ft | 480 kts | 152° |
| 2026-04-28 15:55 | -21.26142 | -44.63350 | 37093 ft | 480 kts | 152° |
| 2026-04-28 15:55 | -21.31826 | -44.59567 | 37080 ft | 481 kts | 152° |
| 2026-04-28 15:56 | -21.37506 | -44.55801 | 36943 ft | 479 kts | 152° |
| 2026-04-28 15:56 | -21.40349 | -44.53919 | 36412 ft | 480 kts | 152° |
| 2026-04-28 15:56 | -21.43208 | -44.52029 | 35567 ft | 486 kts | 151° |
| 2026-04-28 15:57 | -21.46110 | -44.50109 | 34564 ft | 494 kts | 151° |
| 2026-04-28 15:57 | -21.49069 | -44.48150 | 33417 ft | 505 kts | 150° |
| 2026-04-28 15:57 | -21.52072 | -44.46161 | 32329 ft | 511 kts | 150° |
| 2026-04-28 15:57 | -21.55118 | -44.44140 | 31324 ft | 515 kts | 150° |
| 2026-04-28 15:58 | -21.58179 | -44.42108 | 30350 ft | 519 kts | 149° |
| 2026-04-28 15:58 | -21.61264 | -44.40058 | 29303 ft | 522 kts | 149° |
| 2026-04-28 15:58 | -21.64335 | -44.38016 | 28620 ft | 516 kts | 149° |
| 2026-04-28 15:58 | -21.67372 | -44.35995 | 27993 ft | 509 kts | 149° |
| 2026-04-28 15:59 | -21.70326 | -44.34028 | 27342 ft | 503 kts | 149° |
| 2026-04-28 15:59 | -21.72332 | -44.32693 | 26927 ft | 500 kts | 149° |
| 2026-04-28 15:59 | -21.76212 | -44.30109 | 26258 ft | 489 kts | 150° |
| 2026-04-28 15:59 | -21.79088 | -44.28191 | 26087 ft | 473 kts | 149° |
| 2026-04-28 16:00 | -21.81811 | -44.26374 | 25937 ft | 458 kts | 150° |
| 2026-04-28 16:00 | -21.84479 | -44.24594 | 25804 ft | 444 kts | 150° |
| 2026-04-28 16:00 | -21.87063 | -44.22869 | 25670 ft | 430 kts | 150° |
| 2026-04-28 16:00 | -21.89566 | -44.21197 | 25548 ft | 417 kts | 150° |
| 2026-04-28 16:01 | -21.92010 | -44.19590 | 25287 ft | 408 kts | 153° |
| 2026-04-28 16:01 | -21.94560 | -44.18305 | 24871 ft | 403 kts | 160° |
| 2026-04-28 16:01 | -21.97147 | -44.17155 | 24434 ft | 400 kts | 160° |
| 2026-04-28 16:01 | -21.99707 | -44.16009 | 24042 ft | 397 kts | 160° |
| 2026-04-28 16:02 | -22.02243 | -44.14865 | 23678 ft | 393 kts | 160° |
| 2026-04-28 16:02 | -22.04758 | -44.13727 | 23253 ft | 391 kts | 159° |
| 2026-04-28 16:02 | -22.07250 | -44.12599 | 22788 ft | 388 kts | 160° |
| 2026-04-28 16:02 | -22.09741 | -44.11475 | 22328 ft | 386 kts | 159° |
| 2026-04-28 16:03 | -22.12208 | -44.10363 | 21871 ft | 384 kts | 159° |
| 2026-04-28 16:03 | -22.14661 | -44.09252 | 21419 ft | 381 kts | 159° |
| 2026-04-28 16:03 | -22.17104 | -44.08149 | 20935 ft | 380 kts | 159° |
| 2026-04-28 16:03 | -22.19534 | -44.07050 | 20518 ft | 377 kts | 159° |
| 2026-04-28 16:04 | -22.21947 | -44.05949 | 20100 ft | 375 kts | 159° |
| 2026-04-28 16:04 | -22.24346 | -44.04857 | 19689 ft | 373 kts | 159° |
| 2026-04-28 16:04 | -22.26733 | -44.03774 | 19295 ft | 371 kts | 159° |
| 2026-04-28 16:04 | -22.28310 | -44.03061 | 19036 ft | 370 kts | 159° |
| 2026-04-28 16:05 | -22.31472 | -44.01631 | 18529 ft | 367 kts | 159° |
| 2026-04-28 16:05 | -22.33825 | -44.00567 | 18103 ft | 365 kts | 159° |
| 2026-04-28 16:05 | -22.36157 | -43.99511 | 17731 ft | 361 kts | 159° |
| 2026-04-28 16:05 | -22.38463 | -43.98466 | 17337 ft | 358 kts | 159° |
| 2026-04-28 16:06 | -22.40746 | -43.97432 | 16834 ft | 353 kts | 159° |
| 2026-04-28 16:06 | -22.43002 | -43.96409 | 16263 ft | 349 kts | 159° |
| 2026-04-28 16:06 | -22.45226 | -43.95401 | 15705 ft | 345 kts | 159° |
| 2026-04-28 16:06 | -22.47424 | -43.94404 | 15168 ft | 340 kts | 159° |
| 2026-04-28 16:07 | -22.49587 | -43.93423 | 14648 ft | 335 kts | 158° |
| 2026-04-28 16:07 | -22.51732 | -43.92450 | 14139 ft | 331 kts | 158° |
| 2026-04-28 16:07 | -22.55933 | -43.90542 | 12994 ft | 324 kts | 158° |
| 2026-04-28 16:08 | -22.57979 | -43.89613 | 12410 ft | 321 kts | 158° |
| 2026-04-28 16:08 | -22.60042 | -43.88677 | 11775 ft | 320 kts | 158° |
| 2026-04-28 16:08 | -22.62079 | -43.87752 | 11235 ft | 316 kts | 158° |
| 2026-04-28 16:09 | -22.66122 | -43.85915 | 10113 ft | 311 kts | 157° |
| 2026-04-28 16:09 | -22.68096 | -43.85016 | 9504 ft | 309 kts | 156° |
| 2026-04-28 16:09 | -22.70075 | -43.84113 | 8897 ft | 308 kts | 157° |
| 2026-04-28 16:10 | -22.73930 | -43.82354 | 8105 ft | 291 kts | 157° |
| 2026-04-28 16:10 | -22.75810 | -43.81496 | 7884 ft | 295 kts | 157° |
| 2026-04-28 16:10 | -22.78944 | -43.80071 | 7519 ft | 291 kts | 158° |
| 2026-04-28 16:11 | -22.82710 | -43.78368 | 7096 ft | 289 kts | 158° |
| 2026-04-28 16:11 | -22.86454 | -43.76659 | 7005 ft | 293 kts | 158° |
| 2026-04-28 16:12 | -22.90191 | -43.74945 | 7002 ft | 294 kts | 157° |
| 2026-04-28 16:12 | -22.92062 | -43.74078 | 6999 ft | 291 kts | 157° |
| 2026-04-28 16:13 | -22.95404 | -43.71707 | 6999 ft | 290 kts | 125° |
| 2026-04-28 16:13 | -22.96420 | -43.69801 | 6997 ft | 292 kts | 117° |
| 2026-04-28 16:13 | -22.98311 | -43.65918 | 7001 ft | 290 kts | 117° |
| 2026-04-28 16:14 | -22.99490 | -43.61860 | 6937 ft | 288 kts | 83° |
| 2026-04-28 16:14 | -22.98099 | -43.57869 | 6470 ft | 280 kts | 60° |
| 2026-04-28 16:15 | -22.96310 | -43.54133 | 6068 ft | 278 kts | 61° |
| 2026-04-28 16:15 | -22.95468 | -43.52302 | 6026 ft | 264 kts | 62° |
| 2026-04-28 16:15 | -22.94691 | -43.50564 | 6026 ft | 249 kts | 63° |
| 2026-04-28 16:16 | -22.94405 | -43.49909 | 5977 ft | 245 kts | 62° |
| 2026-04-28 16:17 | -22.93615 | -43.48051 | 5750 ft | 238 kts | 63° |
| 2026-04-28 16:17 | -22.93331 | -43.47375 | 5676 ft | 235 kts | 61° |
| 2026-04-28 16:18 | -22.92895 | -43.46378 | 5585 ft | 231 kts | 62° |
| 2026-04-28 16:19 | -22.92206 | -43.44801 | 5399 ft | 234 kts | 64° |
| 2026-04-28 16:19 | -22.91551 | -43.43200 | 5156 ft | 232 kts | 64° |
| 2026-04-28 16:19 | -22.90886 | -43.41603 | 4694 ft | 231 kts | 64° |
| 2026-04-28 16:19 | -22.90227 | -43.40031 | 4307 ft | 225 kts | 64° |
| 2026-04-28 16:20 | -22.89595 | -43.38537 | 4185 ft | 212 kts | 64° |
| 2026-04-28 16:20 | -22.88978 | -43.37114 | 4116 ft | 205 kts | 64° |
| 2026-04-28 16:20 | -22.88386 | -43.35718 | 3940 ft | 204 kts | 66° |
| 2026-04-28 16:20 | -22.87972 | -43.34262 | 3773 ft | 197 kts | 74° |
| 2026-04-28 16:21 | -22.87639 | -43.32909 | 3679 ft | 176 kts | 73° |
| 2026-04-28 16:21 | -22.87327 | -43.31701 | 3501 ft | 156 kts | 73° |
| 2026-04-28 16:21 | -22.87048 | -43.30640 | 3347 ft | 139 kts | 72° |
| 2026-04-28 16:21 | -22.86791 | -43.29633 | 3045 ft | 139 kts | 77° |
| 2026-04-28 16:22 | -22.86718 | -43.28890 | 2886 ft | 138 kts | 89° |
| 2026-04-28 16:22 | -22.86742 | -43.27861 | 2795 ft | 137 kts | 90° |
| 2026-04-28 16:22 | -22.86755 | -43.26825 | 2756 ft | 137 kts | 90° |
| 2026-04-28 16:22 | -22.86758 | -43.25787 | 2657 ft | 139 kts | 90° |
| 2026-04-28 16:23 | -22.86764 | -43.24734 | 2574 ft | 140 kts | 90° |
| 2026-04-28 16:23 | -22.86767 | -43.23680 | 2508 ft | 139 kts | 90° |
| 2026-04-28 16:23 | -22.86769 | -43.22612 | 2287 ft | 146 kts | 90° |
| 2026-04-28 16:23 | -22.86770 | -43.21470 | 1816 ft | 155 kts | 91° |
| 2026-04-28 16:24 | -22.86771 | -43.20329 | 1528 ft | 143 kts | 91° |
| 2026-04-28 16:24 | -22.86772 | -43.19297 | 1296 ft | 132 kts | 91° |
| 2026-04-28 16:24 | -22.86802 | -43.18296 | 1009 ft | 133 kts | 100° |
| 2026-04-28 16:24 | -22.87145 | -43.17377 | 714 ft | 132 kts | 126° |
| 2026-04-28 16:25 | -22.87797 | -43.16717 | 496 ft | 122 kts | 149° |
| 2026-04-28 16:25 | -22.88574 | -43.16417 | 355 ft | 130 kts | 170° |
| 2026-04-28 16:25 | -22.89199 | -43.16362 | 253 ft | 133 kts | 179° |
| 2026-04-28 16:25 | -22.90369 | -43.16324 | 50 ft | 126 kts | 176° |
| 2026-04-28 16:26 | -22.91147 | -43.16274 | 21 ft | 75 kts | 176° |
| 2026-04-28 16:26 | -22.91441 | -43.16256 | 22 ft | 22 kts | 174° |
| 2026-04-28 16:26 | -22.91511 | -43.16276 | 19 ft | 14 kts | 237° |
| 2026-04-28 16:26 | -22.91520 | -43.16352 | 19 ft | 1 kts | 272° |
| 2026-04-28 16:27 | -22.91513 | -43.16384 | 20 ft | 6 kts | 295° |
| 2026-04-28 16:27 | -22.91476 | -43.16428 | 21 ft | 10 kts | 315° |
| 2026-04-28 16:27 | -22.91353 | -43.16520 | 22 ft | 6 kts | 283° |
| 2026-04-28 16:28 | -22.91351 | -43.16577 | 22 ft | 9 kts | 266° |
| 2026-04-28 16:28 | -22.91352 | -43.16581 | 22 ft | 0 kts | 266° |